sensor_id;sensor_type;location;lat;lon;timestamp;pressure;altitude;pressure_sealevel;temperature
64947;BMP280;51469;52.150;4.682;2023-06-19T00:03:52;100950.50;;;28.56
64947;BMP280;51469;52.150;4.682;2023-06-19T00:06:18;100962.91;;;28.81
64947;BMP280;51469;52.150;4.682;2023-06-19T00:08:43;100964.72;;;28.78
64947;BMP280;51469;52.150;4.682;2023-06-19T00:11:08;100963.22;;;28.77
64947;BMP280;51469;52.150;4.682;2023-06-19T00:13:34;100957.84;;;28.37
64947;BMP280;51469;52.150;4.682;2023-06-19T00:16:00;100969.34;;;28.81
64947;BMP280;51469;52.150;4.682;2023-06-19T00:18:28;100955.41;;;28.61
64947;BMP280;51469;52.150;4.682;2023-06-19T00:20:54;100960.50;;;28.57
64947;BMP280;51469;52.150;4.682;2023-06-19T00:23:24;100976.97;;;28.64
64947;BMP280;51469;52.150;4.682;2023-06-19T00:25:49;100972.81;;;28.54
64947;BMP280;51469;52.150;4.682;2023-06-19T00:28:14;100973.81;;;28.51
64947;BMP280;51469;52.150;4.682;2023-06-19T00:30:41;100967.38;;;28.03
64947;BMP280;51469;52.150;4.682;2023-06-19T00:33:07;100964.72;;;27.94
64947;BMP280;51469;52.150;4.682;2023-06-19T00:35:33;100974.25;;;28.02
64947;BMP280;51469;52.150;4.682;2023-06-19T00:37:59;100978.56;;;27.98
64947;BMP280;51469;52.150;4.682;2023-06-19T00:40:29;100967.22;;;27.92
64947;BMP280;51469;52.150;4.682;2023-06-19T00:42:55;100979.31;;;27.67
64947;BMP280;51469;52.150;4.682;2023-06-19T00:45:21;100969.25;;;27.36
64947;BMP280;51469;52.150;4.682;2023-06-19T00:47:47;100978.09;;;27.49
64947;BMP280;51469;52.150;4.682;2023-06-19T00:50:12;100979.53;;;27.39
64947;BMP280;51469;52.150;4.682;2023-06-19T00:52:38;100977.53;;;27.45
64947;BMP280;51469;52.150;4.682;2023-06-19T00:55:05;100984.25;;;27.52
64947;BMP280;51469;52.150;4.682;2023-06-19T00:57:32;100988.06;;;27.24
64947;BMP280;51469;52.150;4.682;2023-06-19T00:59:58;101001.78;;;27.17
64947;BMP280;51469;52.150;4.682;2023-06-19T01:02:24;101003.06;;;27.36
64947;BMP280;51469;52.150;4.682;2023-06-19T01:04:50;101009.31;;;27.45
64947;BMP280;51469;52.150;4.682;2023-06-19T01:07:22;101003.47;;;27.49
64947;BMP280;51469;52.150;4.682;2023-06-19T01:09:59;101003.16;;;27.21
64947;BMP280;51469;52.150;4.682;2023-06-19T01:12:38;101006.00;;;27.07
64947;BMP280;51469;52.150;4.682;2023-06-19T01:15:05;101004.06;;;27.33
64947;BMP280;51469;52.150;4.682;2023-06-19T01:17:33;101004.38;;;27.15
64947;BMP280;51469;52.150;4.682;2023-06-19T01:20:00;101000.78;;;27.40
64947;BMP280;51469;52.150;4.682;2023-06-19T01:22:31;100996.94;;;27.62
64947;BMP280;51469;52.150;4.682;2023-06-19T01:24:57;100994.56;;;27.56
64947;BMP280;51469;52.150;4.682;2023-06-19T01:27:26;101000.53;;;27.38
64947;BMP280;51469;52.150;4.682;2023-06-19T01:29:55;101002.34;;;27.41
64947;BMP280;51469;52.150;4.682;2023-06-19T01:32:44;101012.94;;;27.06
64947;BMP280;51469;52.150;4.682;2023-06-19T01:35:15;101003.78;;;27.11
64947;BMP280;51469;52.150;4.682;2023-06-19T01:37:43;101004.72;;;26.68
64947;BMP280;51469;52.150;4.682;2023-06-19T01:40:09;101006.47;;;26.31
64947;BMP280;51469;52.150;4.682;2023-06-19T01:42:38;101017.97;;;26.33
64947;BMP280;51469;52.150;4.682;2023-06-19T01:45:05;101017.78;;;26.22
64947;BMP280;51469;52.150;4.682;2023-06-19T01:47:31;101006.91;;;26.44
64947;BMP280;51469;52.150;4.682;2023-06-19T01:49:56;101002.53;;;26.77
64947;BMP280;51469;52.150;4.682;2023-06-19T01:52:23;101005.50;;;26.68
64947;BMP280;51469;52.150;4.682;2023-06-19T01:54:48;100997.72;;;26.78
64947;BMP280;51469;52.150;4.682;2023-06-19T01:57:14;101004.97;;;27.04
64947;BMP280;51469;52.150;4.682;2023-06-19T01:59:39;100997.56;;;27.07
64947;BMP280;51469;52.150;4.682;2023-06-19T02:02:05;100990.38;;;26.66
64947;BMP280;51469;52.150;4.682;2023-06-19T02:04:32;100986.31;;;26.38
64947;BMP280;51469;52.150;4.682;2023-06-19T02:06:57;100990.69;;;26.88
64947;BMP280;51469;52.150;4.682;2023-06-19T02:09:22;101001.34;;;26.64
64947;BMP280;51469;52.150;4.682;2023-06-19T02:11:50;100993.78;;;26.90
64947;BMP280;51469;52.150;4.682;2023-06-19T02:14:16;100988.19;;;26.75
64947;BMP280;51469;52.150;4.682;2023-06-19T02:16:41;100991.59;;;26.99
64947;BMP280;51469;52.150;4.682;2023-06-19T02:19:09;100992.63;;;26.82
64947;BMP280;51469;52.150;4.682;2023-06-19T02:21:35;100999.75;;;26.97
64947;BMP280;51469;52.150;4.682;2023-06-19T02:24:00;100985.16;;;27.19
64947;BMP280;51469;52.150;4.682;2023-06-19T02:26:26;100994.50;;;27.05
64947;BMP280;51469;52.150;4.682;2023-06-19T02:28:54;101001.16;;;26.87
64947;BMP280;51469;52.150;4.682;2023-06-19T02:31:20;100986.56;;;26.89
64947;BMP280;51469;52.150;4.682;2023-06-19T02:33:45;101002.78;;;26.94
64947;BMP280;51469;52.150;4.682;2023-06-19T02:36:10;100988.03;;;26.64
64947;BMP280;51469;52.150;4.682;2023-06-19T02:38:36;101007.97;;;27.01
64947;BMP280;51469;52.150;4.682;2023-06-19T02:41:01;101006.38;;;27.14
64947;BMP280;51469;52.150;4.682;2023-06-19T02:43:27;101014.13;;;26.99
64947;BMP280;51469;52.150;4.682;2023-06-19T02:45:52;101021.78;;;27.19
64947;BMP280;51469;52.150;4.682;2023-06-19T02:48:17;101024.59;;;26.99
64947;BMP280;51469;52.150;4.682;2023-06-19T02:50:44;101013.59;;;26.81
64947;BMP280;51469;52.150;4.682;2023-06-19T02:53:09;101018.47;;;26.80
64947;BMP280;51469;52.150;4.682;2023-06-19T02:55:36;101017.56;;;26.69
64947;BMP280;51469;52.150;4.682;2023-06-19T02:58:01;101028.47;;;26.47
64947;BMP280;51469;52.150;4.682;2023-06-19T03:00:27;101040.84;;;26.55
64947;BMP280;51469;52.150;4.682;2023-06-19T03:02:54;101035.81;;;26.59
64947;BMP280;51469;52.150;4.682;2023-06-19T03:05:19;101035.38;;;26.80
64947;BMP280;51469;52.150;4.682;2023-06-19T03:07:45;101052.63;;;26.88
64947;BMP280;51469;52.150;4.682;2023-06-19T03:10:10;101044.72;;;26.72
64947;BMP280;51469;52.150;4.682;2023-06-19T03:12:36;101051.00;;;26.81
64947;BMP280;51469;52.150;4.682;2023-06-19T03:15:01;101050.50;;;26.83
64947;BMP280;51469;52.150;4.682;2023-06-19T03:17:26;101057.16;;;26.65
64947;BMP280;51469;52.150;4.682;2023-06-19T03:19:52;101052.47;;;26.77
64947;BMP280;51469;52.150;4.682;2023-06-19T03:22:19;101059.09;;;26.45
64947;BMP280;51469;52.150;4.682;2023-06-19T03:24:45;101066.09;;;26.35
64947;BMP280;51469;52.150;4.682;2023-06-19T03:27:10;101064.13;;;26.12
64947;BMP280;51469;52.150;4.682;2023-06-19T03:29:35;101066.41;;;25.70
64947;BMP280;51469;52.150;4.682;2023-06-19T03:32:01;101072.06;;;25.84
64947;BMP280;51469;52.150;4.682;2023-06-19T03:34:26;101078.25;;;25.74
64947;BMP280;51469;52.150;4.682;2023-06-19T03:36:52;101079.66;;;25.55
64947;BMP280;51469;52.150;4.682;2023-06-19T03:39:17;101080.06;;;25.39
64947;BMP280;51469;52.150;4.682;2023-06-19T03:41:42;101100.41;;;25.34
64947;BMP280;51469;52.150;4.682;2023-06-19T03:44:08;101092.91;;;25.54
64947;BMP280;51469;52.150;4.682;2023-06-19T03:46:33;101095.97;;;25.42
64947;BMP280;51469;52.150;4.682;2023-06-19T03:48:58;101106.25;;;25.45
64947;BMP280;51469;52.150;4.682;2023-06-19T03:51:24;101106.09;;;25.16
64947;BMP280;51469;52.150;4.682;2023-06-19T03:53:49;101119.53;;;24.71
64947;BMP280;51469;52.150;4.682;2023-06-19T03:56:15;101129.59;;;24.95
64947;BMP280;51469;52.150;4.682;2023-06-19T03:58:40;101114.34;;;24.96
64947;BMP280;51469;52.150;4.682;2023-06-19T04:01:05;101128.38;;;24.96
64947;BMP280;51469;52.150;4.682;2023-06-19T04:03:31;101131.78;;;25.00
64947;BMP280;51469;52.150;4.682;2023-06-19T04:05:56;101133.97;;;24.87
64947;BMP280;51469;52.150;4.682;2023-06-19T04:08:21;101146.56;;;25.01
64947;BMP280;51469;52.150;4.682;2023-06-19T04:10:47;101147.56;;;25.21
64947;BMP280;51469;52.150;4.682;2023-06-19T04:13:12;101152.97;;;25.01
64947;BMP280;51469;52.150;4.682;2023-06-19T04:15:38;101153.63;;;24.96
64947;BMP280;51469;52.150;4.682;2023-06-19T04:18:03;101157.38;;;24.93
64947;BMP280;51469;52.150;4.682;2023-06-19T04:20:29;101150.16;;;25.01
64947;BMP280;51469;52.150;4.682;2023-06-19T04:22:54;101159.53;;;25.07
64947;BMP280;51469;52.150;4.682;2023-06-19T04:25:19;101161.13;;;24.90
64947;BMP280;51469;52.150;4.682;2023-06-19T04:27:45;101169.78;;;25.10
64947;BMP280;51469;52.150;4.682;2023-06-19T04:30:11;101166.88;;;25.37
64947;BMP280;51469;52.150;4.682;2023-06-19T04:32:36;101173.59;;;25.31
64947;BMP280;51469;52.150;4.682;2023-06-19T04:35:09;101181.66;;;25.05
64947;BMP280;51469;52.150;4.682;2023-06-19T04:37:35;101189.69;;;25.21
64947;BMP280;51469;52.150;4.682;2023-06-19T04:40:00;101187.19;;;25.32
64947;BMP280;51469;52.150;4.682;2023-06-19T04:42:26;101198.72;;;25.34
64947;BMP280;51469;52.150;4.682;2023-06-19T04:44:52;101193.06;;;25.43
64947;BMP280;51469;52.150;4.682;2023-06-19T04:47:20;101194.41;;;25.15
64947;BMP280;51469;52.150;4.682;2023-06-19T04:49:45;101209.09;;;25.10
64947;BMP280;51469;52.150;4.682;2023-06-19T04:52:11;101210.94;;;25.22
64947;BMP280;51469;52.150;4.682;2023-06-19T04:54:36;101212.75;;;25.34
64947;BMP280;51469;52.150;4.682;2023-06-19T04:57:02;101214.25;;;25.44
64947;BMP280;51469;52.150;4.682;2023-06-19T04:59:27;101203.94;;;25.18
64947;BMP280;51469;52.150;4.682;2023-06-19T05:01:55;101209.34;;;25.21
64947;BMP280;51469;52.150;4.682;2023-06-19T05:04:21;101216.72;;;25.19
64947;BMP280;51469;52.150;4.682;2023-06-19T05:06:48;101220.88;;;25.32
64947;BMP280;51469;52.150;4.682;2023-06-19T05:09:13;101231.66;;;25.25
64947;BMP280;51469;52.150;4.682;2023-06-19T05:11:39;101232.16;;;25.14
64947;BMP280;51469;52.150;4.682;2023-06-19T05:14:04;101240.28;;;25.12
64947;BMP280;51469;52.150;4.682;2023-06-19T05:16:29;101230.28;;;25.20
64947;BMP280;51469;52.150;4.682;2023-06-19T05:18:55;101243.25;;;25.18
64947;BMP280;51469;52.150;4.682;2023-06-19T05:21:20;101243.78;;;24.89
64947;BMP280;51469;52.150;4.682;2023-06-19T05:23:45;101254.34;;;25.12
64947;BMP280;51469;52.150;4.682;2023-06-19T05:26:16;101234.97;;;25.23
64947;BMP280;51469;52.150;4.682;2023-06-19T05:28:41;101240.84;;;25.34
64947;BMP280;51469;52.150;4.682;2023-06-19T05:31:07;101249.88;;;25.38
64947;BMP280;51469;52.150;4.682;2023-06-19T05:33:32;101253.16;;;25.46
64947;BMP280;51469;52.150;4.682;2023-06-19T05:35:57;101253.44;;;24.88
64947;BMP280;51469;52.150;4.682;2023-06-19T05:38:22;101258.13;;;24.82
64947;BMP280;51469;52.150;4.682;2023-06-19T05:40:51;101266.25;;;24.71
64947;BMP280;51469;52.150;4.682;2023-06-19T05:43:17;101279.00;;;24.36
64947;BMP280;51469;52.150;4.682;2023-06-19T05:45:44;101284.63;;;24.54
64947;BMP280;51469;52.150;4.682;2023-06-19T05:48:09;101284.63;;;24.90
64947;BMP280;51469;52.150;4.682;2023-06-19T05:50:34;101276.19;;;25.17
64947;BMP280;51469;52.150;4.682;2023-06-19T05:53:00;101282.41;;;25.12
64947;BMP280;51469;52.150;4.682;2023-06-19T05:55:25;101287.13;;;24.70
64947;BMP280;51469;52.150;4.682;2023-06-19T05:57:52;101290.22;;;25.08
64947;BMP280;51469;52.150;4.682;2023-06-19T06:00:18;101296.47;;;24.94
64947;BMP280;51469;52.150;4.682;2023-06-19T06:02:44;101291.50;;;24.80
64947;BMP280;51469;52.150;4.682;2023-06-19T06:05:09;101302.41;;;24.87
64947;BMP280;51469;52.150;4.682;2023-06-19T06:07:35;101321.13;;;24.99
64947;BMP280;51469;52.150;4.682;2023-06-19T06:10:01;101314.28;;;24.82
64947;BMP280;51469;52.150;4.682;2023-06-19T06:12:26;101324.22;;;24.65
64947;BMP280;51469;52.150;4.682;2023-06-19T06:14:51;101321.59;;;24.53
64947;BMP280;51469;52.150;4.682;2023-06-19T06:17:17;101327.69;;;24.78
64947;BMP280;51469;52.150;4.682;2023-06-19T06:19:42;101331.13;;;24.73
64947;BMP280;51469;52.150;4.682;2023-06-19T06:22:07;101333.75;;;24.50
64947;BMP280;51469;52.150;4.682;2023-06-19T06:24:33;101350.56;;;24.59
64947;BMP280;51469;52.150;4.682;2023-06-19T06:26:58;101349.13;;;24.27
64947;BMP280;51469;52.150;4.682;2023-06-19T06:29:24;101354.56;;;24.31
64947;BMP280;51469;52.150;4.682;2023-06-19T06:31:49;101356.31;;;24.46
64947;BMP280;51469;52.150;4.682;2023-06-19T06:34:18;101362.88;;;24.43
64947;BMP280;51469;52.150;4.682;2023-06-19T06:36:44;101365.78;;;24.22
64947;BMP280;51469;52.150;4.682;2023-06-19T06:39:10;101358.22;;;24.49
64947;BMP280;51469;52.150;4.682;2023-06-19T06:41:36;101358.75;;;24.26
64947;BMP280;51469;52.150;4.682;2023-06-19T06:44:01;101367.22;;;24.35
64947;BMP280;51469;52.150;4.682;2023-06-19T06:46:27;101371.94;;;24.56
64947;BMP280;51469;52.150;4.682;2023-06-19T06:48:52;101367.28;;;24.80
64947;BMP280;51469;52.150;4.682;2023-06-19T06:51:18;101365.69;;;24.70
64947;BMP280;51469;52.150;4.682;2023-06-19T06:53:43;101379.44;;;25.13
64947;BMP280;51469;52.150;4.682;2023-06-19T06:56:09;101381.47;;;25.31
64947;BMP280;51469;52.150;4.682;2023-06-19T06:58:34;101381.00;;;25.32
64947;BMP280;51469;52.150;4.682;2023-06-19T07:00:59;101396.19;;;25.67
64947;BMP280;51469;52.150;4.682;2023-06-19T07:03:25;101393.06;;;25.74
64947;BMP280;51469;52.150;4.682;2023-06-19T07:05:50;101395.84;;;25.83
64947;BMP280;51469;52.150;4.682;2023-06-19T07:08:16;101390.66;;;25.90
64947;BMP280;51469;52.150;4.682;2023-06-19T07:10:41;101404.09;;;25.95
64947;BMP280;51469;52.150;4.682;2023-06-19T07:13:07;101402.59;;;26.09
64947;BMP280;51469;52.150;4.682;2023-06-19T07:15:32;101408.06;;;26.12
64947;BMP280;51469;52.150;4.682;2023-06-19T07:17:57;101406.31;;;26.24
64947;BMP280;51469;52.150;4.682;2023-06-19T07:20:23;101416.56;;;26.36
64947;BMP280;51469;52.150;4.682;2023-06-19T07:22:51;101418.72;;;26.41
64947;BMP280;51469;52.150;4.682;2023-06-19T07:25:16;101416.44;;;26.54
64947;BMP280;51469;52.150;4.682;2023-06-19T07:27:42;101419.41;;;26.74
64947;BMP280;51469;52.150;4.682;2023-06-19T07:30:08;101418.34;;;26.71
64947;BMP280;51469;52.150;4.682;2023-06-19T07:32:33;101422.06;;;26.77
64947;BMP280;51469;52.150;4.682;2023-06-19T07:34:59;101421.97;;;26.72
64947;BMP280;51469;52.150;4.682;2023-06-19T07:37:24;101421.00;;;26.75
64947;BMP280;51469;52.150;4.682;2023-06-19T07:39:50;101416.78;;;26.94
64947;BMP280;51469;52.150;4.682;2023-06-19T07:42:17;101427.47;;;27.19
64947;BMP280;51469;52.150;4.682;2023-06-19T07:44:44;101430.78;;;27.03
64947;BMP280;51469;52.150;4.682;2023-06-19T07:47:10;101421.94;;;27.10
64947;BMP280;51469;52.150;4.682;2023-06-19T07:49:36;101423.78;;;27.13
64947;BMP280;51469;52.150;4.682;2023-06-19T07:52:02;101430.97;;;27.14
64947;BMP280;51469;52.150;4.682;2023-06-19T07:54:28;101428.44;;;27.01
64947;BMP280;51469;52.150;4.682;2023-06-19T07:56:53;101432.63;;;27.06
64947;BMP280;51469;52.150;4.682;2023-06-19T07:59:19;101438.72;;;26.90
64947;BMP280;51469;52.150;4.682;2023-06-19T08:01:44;101429.13;;;27.25
64947;BMP280;51469;52.150;4.682;2023-06-19T08:04:10;101439.72;;;27.16
64947;BMP280;51469;52.150;4.682;2023-06-19T08:06:35;101438.19;;;27.15
64947;BMP280;51469;52.150;4.682;2023-06-19T08:09:01;101438.47;;;27.17
64947;BMP280;51469;52.150;4.682;2023-06-19T08:11:27;101440.56;;;27.31
64947;BMP280;51469;52.150;4.682;2023-06-19T08:13:52;101442.56;;;27.45
64947;BMP280;51469;52.150;4.682;2023-06-19T08:16:18;101438.59;;;27.37
64947;BMP280;51469;52.150;4.682;2023-06-19T08:18:44;101436.66;;;27.57
64947;BMP280;51469;52.150;4.682;2023-06-19T08:21:09;101440.25;;;27.86
64947;BMP280;51469;52.150;4.682;2023-06-19T08:23:35;101454.25;;;27.81
64947;BMP280;51469;52.150;4.682;2023-06-19T08:26:00;101452.97;;;27.39
64947;BMP280;51469;52.150;4.682;2023-06-19T08:28:25;101462.13;;;26.96
64947;BMP280;51469;52.150;4.682;2023-06-19T08:30:51;101463.22;;;27.13
64947;BMP280;51469;52.150;4.682;2023-06-19T08:33:16;101465.63;;;27.43
64947;BMP280;51469;52.150;4.682;2023-06-19T08:35:42;101474.09;;;27.43
64947;BMP280;51469;52.150;4.682;2023-06-19T08:38:08;101482.22;;;27.27
64947;BMP280;51469;52.150;4.682;2023-06-19T08:40:34;101483.84;;;27.19
64947;BMP280;51469;52.150;4.682;2023-06-19T08:42:59;101491.94;;;27.26
64947;BMP280;51469;52.150;4.682;2023-06-19T08:45:26;101493.09;;;26.96
64947;BMP280;51469;52.150;4.682;2023-06-19T08:48:00;101490.50;;;27.45
64947;BMP280;51469;52.150;4.682;2023-06-19T08:50:26;101503.91;;;27.35
64947;BMP280;51469;52.150;4.682;2023-06-19T08:52:51;101495.75;;;27.52
64947;BMP280;51469;52.150;4.682;2023-06-19T08:55:16;101489.16;;;27.69
64947;BMP280;51469;52.150;4.682;2023-06-19T08:57:42;101487.59;;;27.39
64947;BMP280;51469;52.150;4.682;2023-06-19T09:00:08;101495.38;;;27.87
64947;BMP280;51469;52.150;4.682;2023-06-19T09:02:37;101488.19;;;27.86
64947;BMP280;51469;52.150;4.682;2023-06-19T09:05:15;101482.91;;;28.08
64947;BMP280;51469;52.150;4.682;2023-06-19T09:07:41;101483.13;;;28.25
64947;BMP280;51469;52.150;4.682;2023-06-19T09:10:15;101480.91;;;28.29
64947;BMP280;51469;52.150;4.682;2023-06-19T09:12:42;101493.81;;;28.15
64947;BMP280;51469;52.150;4.682;2023-06-19T09:15:15;101491.03;;;28.35
64947;BMP280;51469;52.150;4.682;2023-06-19T09:17:40;101491.91;;;28.61
64947;BMP280;51469;52.150;4.682;2023-06-19T09:20:06;101497.53;;;28.41
64947;BMP280;51469;52.150;4.682;2023-06-19T09:22:32;101506.72;;;28.56
64947;BMP280;51469;52.150;4.682;2023-06-19T09:25:01;101498.66;;;28.69
64947;BMP280;51469;52.150;4.682;2023-06-19T09:27:32;101507.28;;;28.60
64947;BMP280;51469;52.150;4.682;2023-06-19T09:29:58;101518.19;;;28.67
64947;BMP280;51469;52.150;4.682;2023-06-19T09:32:28;101512.13;;;28.74
64947;BMP280;51469;52.150;4.682;2023-06-19T09:34:54;101520.56;;;28.54
64947;BMP280;51469;52.150;4.682;2023-06-19T09:37:25;101524.78;;;28.64
64947;BMP280;51469;52.150;4.682;2023-06-19T09:40:08;101527.06;;;28.60
64947;BMP280;51469;52.150;4.682;2023-06-19T09:42:36;101534.25;;;28.61
64947;BMP280;51469;52.150;4.682;2023-06-19T09:45:04;101540.09;;;28.38
64947;BMP280;51469;52.150;4.682;2023-06-19T09:47:51;101543.81;;;28.29
64947;BMP280;51469;52.150;4.682;2023-06-19T09:50:19;101539.91;;;28.61
64947;BMP280;51469;52.150;4.682;2023-06-19T09:52:48;101533.69;;;28.92
64947;BMP280;51469;52.150;4.682;2023-06-19T09:55:16;101529.34;;;29.16
64947;BMP280;51469;52.150;4.682;2023-06-19T09:57:44;101540.91;;;29.38
64947;BMP280;51469;52.150;4.682;2023-06-19T10:00:10;101544.75;;;29.40
64947;BMP280;51469;52.150;4.682;2023-06-19T10:02:44;101541.47;;;29.22
64947;BMP280;51469;52.150;4.682;2023-06-19T10:05:09;101546.00;;;29.14
64947;BMP280;51469;52.150;4.682;2023-06-19T10:07:40;101552.69;;;29.36
64947;BMP280;51469;52.150;4.682;2023-06-19T10:10:08;101544.38;;;29.53
64947;BMP280;51469;52.150;4.682;2023-06-19T10:12:41;101542.06;;;29.77
64947;BMP280;51469;52.150;4.682;2023-06-19T10:17:36;101547.66;;;29.97
64947;BMP280;51469;52.150;4.682;2023-06-19T10:20:02;101540.03;;;30.14
64947;BMP280;51469;52.150;4.682;2023-06-19T10:22:31;101538.91;;;30.31
64947;BMP280;51469;52.150;4.682;2023-06-19T10:24:57;101539.63;;;30.63
64947;BMP280;51469;52.150;4.682;2023-06-19T10:27:24;101544.00;;;30.69
64947;BMP280;51469;52.150;4.682;2023-06-19T10:29:54;101554.53;;;30.69
64947;BMP280;51469;52.150;4.682;2023-06-19T10:32:20;101543.91;;;30.53
64947;BMP280;51469;52.150;4.682;2023-06-19T10:34:47;101544.72;;;30.59
64947;BMP280;51469;52.150;4.682;2023-06-19T10:37:14;101554.13;;;30.87
64947;BMP280;51469;52.150;4.682;2023-06-19T10:39:40;101541.94;;;30.70
64947;BMP280;51469;52.150;4.682;2023-06-19T10:42:07;101538.53;;;30.55
64947;BMP280;51469;52.150;4.682;2023-06-19T10:44:32;101544.94;;;30.55
64947;BMP280;51469;52.150;4.682;2023-06-19T10:46:58;101546.34;;;30.71
64947;BMP280;51469;52.150;4.682;2023-06-19T10:49:23;101543.78;;;30.73
64947;BMP280;51469;52.150;4.682;2023-06-19T10:51:49;101537.66;;;30.90
64947;BMP280;51469;52.150;4.682;2023-06-19T10:54:15;101538.47;;;31.02
64947;BMP280;51469;52.150;4.682;2023-06-19T10:56:41;101542.81;;;30.87
64947;BMP280;51469;52.150;4.682;2023-06-19T10:59:09;101536.44;;;31.08
64947;BMP280;51469;52.150;4.682;2023-06-19T11:01:41;101530.06;;;31.40
64947;BMP280;51469;52.150;4.682;2023-06-19T11:04:09;101528.56;;;31.72
64947;BMP280;51469;52.150;4.682;2023-06-19T11:06:36;101524.13;;;31.38
64947;BMP280;51469;52.150;4.682;2023-06-19T11:09:12;101532.41;;;31.75
64947;BMP280;51469;52.150;4.682;2023-06-19T11:14:07;101530.34;;;31.48
64947;BMP280;51469;52.150;4.682;2023-06-19T11:16:33;101525.47;;;31.59
64947;BMP280;51469;52.150;4.682;2023-06-19T11:19:00;101520.00;;;31.50
64947;BMP280;51469;52.150;4.682;2023-06-19T11:21:33;101516.38;;;31.50
64947;BMP280;51469;52.150;4.682;2023-06-19T11:24:04;101530.59;;;31.44
64947;BMP280;51469;52.150;4.682;2023-06-19T11:26:34;101522.34;;;31.68
64947;BMP280;51469;52.150;4.682;2023-06-19T11:29:00;101525.94;;;31.63
64947;BMP280;51469;52.150;4.682;2023-06-19T11:31:26;101530.63;;;31.77
64947;BMP280;51469;52.150;4.682;2023-06-19T11:33:59;101513.56;;;31.55
64947;BMP280;51469;52.150;4.682;2023-06-19T11:36:24;101522.38;;;31.46
64947;BMP280;51469;52.150;4.682;2023-06-19T11:38:52;101517.94;;;31.89
64947;BMP280;51469;52.150;4.682;2023-06-19T11:41:25;101526.44;;;31.89
64947;BMP280;51469;52.150;4.682;2023-06-19T11:44:02;101538.31;;;31.71
64947;BMP280;51469;52.150;4.682;2023-06-19T11:46:29;101547.03;;;31.18
64947;BMP280;51469;52.150;4.682;2023-06-19T11:49:16;101545.28;;;31.48
64947;BMP280;51469;52.150;4.682;2023-06-19T11:51:44;101542.22;;;31.52
64947;BMP280;51469;52.150;4.682;2023-06-19T11:54:12;101530.59;;;31.66
64947;BMP280;51469;52.150;4.682;2023-06-19T11:56:38;101541.72;;;31.81
64947;BMP280;51469;52.150;4.682;2023-06-19T11:59:04;101543.97;;;31.55
64947;BMP280;51469;52.150;4.682;2023-06-19T12:01:33;101538.59;;;31.79
64947;BMP280;51469;52.150;4.682;2023-06-19T12:04:00;101537.53;;;32.09
64947;BMP280;51469;52.150;4.682;2023-06-19T12:06:26;101537.50;;;32.25
64947;BMP280;51469;52.150;4.682;2023-06-19T12:08:51;101532.38;;;32.19
64947;BMP280;51469;52.150;4.682;2023-06-19T12:11:16;101535.88;;;32.57
64947;BMP280;51469;52.150;4.682;2023-06-19T12:13:42;101540.72;;;32.68
64947;BMP280;51469;52.150;4.682;2023-06-19T12:16:09;101531.84;;;32.88
64947;BMP280;51469;52.150;4.682;2023-06-19T12:18:35;101542.22;;;32.80
64947;BMP280;51469;52.150;4.682;2023-06-19T12:21:00;101534.84;;;32.55
64947;BMP280;51469;52.150;4.682;2023-06-19T12:23:25;101539.75;;;32.49
64947;BMP280;51469;52.150;4.682;2023-06-19T12:25:51;101543.59;;;32.62
64947;BMP280;51469;52.150;4.682;2023-06-19T12:28:16;101547.00;;;32.50
64947;BMP280;51469;52.150;4.682;2023-06-19T12:30:45;101544.13;;;32.61
64947;BMP280;51469;52.150;4.682;2023-06-19T12:33:10;101540.31;;;32.42
64947;BMP280;51469;52.150;4.682;2023-06-19T12:35:40;101553.13;;;32.65
64947;BMP280;51469;52.150;4.682;2023-06-19T12:38:06;101541.44;;;32.79
64947;BMP280;51469;52.150;4.682;2023-06-19T12:40:32;101549.47;;;32.81
64947;BMP280;51469;52.150;4.682;2023-06-19T12:42:57;101541.69;;;32.87
64947;BMP280;51469;52.150;4.682;2023-06-19T12:45:23;101551.91;;;33.12
64947;BMP280;51469;52.150;4.682;2023-06-19T12:47:48;101552.75;;;32.96
64947;BMP280;51469;52.150;4.682;2023-06-19T12:50:13;101547.84;;;32.91
64947;BMP280;51469;52.150;4.682;2023-06-19T12:52:39;101541.56;;;33.09
64947;BMP280;51469;52.150;4.682;2023-06-19T12:55:04;101544.88;;;33.18
64947;BMP280;51469;52.150;4.682;2023-06-19T12:57:30;101555.53;;;33.47
64947;BMP280;51469;52.150;4.682;2023-06-19T12:59:55;101545.47;;;33.41
64947;BMP280;51469;52.150;4.682;2023-06-19T13:02:22;101546.47;;;33.14
64947;BMP280;51469;52.150;4.682;2023-06-19T13:04:47;101545.63;;;33.19
64947;BMP280;51469;52.150;4.682;2023-06-19T13:07:12;101545.16;;;33.15
64947;BMP280;51469;52.150;4.682;2023-06-19T13:09:38;101534.47;;;32.86
64947;BMP280;51469;52.150;4.682;2023-06-19T13:12:04;101537.53;;;32.88
64947;BMP280;51469;52.150;4.682;2023-06-19T13:14:29;101536.56;;;33.20
64947;BMP280;51469;52.150;4.682;2023-06-19T13:16:57;101539.91;;;33.59
64947;BMP280;51469;52.150;4.682;2023-06-19T13:19:23;101548.41;;;33.64
64947;BMP280;51469;52.150;4.682;2023-06-19T13:21:48;101536.63;;;33.50
64947;BMP280;51469;52.150;4.682;2023-06-19T13:24:14;101526.63;;;33.38
64947;BMP280;51469;52.150;4.682;2023-06-19T13:26:39;101533.63;;;33.37
64947;BMP280;51469;52.150;4.682;2023-06-19T13:29:04;101519.84;;;33.46
64947;BMP280;51469;52.150;4.682;2023-06-19T13:31:30;101531.97;;;33.47
64947;BMP280;51469;52.150;4.682;2023-06-19T13:33:55;101541.00;;;33.16
64947;BMP280;51469;52.150;4.682;2023-06-19T13:36:21;101538.63;;;33.25
64947;BMP280;51469;52.150;4.682;2023-06-19T13:38:48;101537.25;;;32.97
64947;BMP280;51469;52.150;4.682;2023-06-19T13:41:13;101535.47;;;32.94
64947;BMP280;51469;52.150;4.682;2023-06-19T13:43:39;101528.25;;;33.28
64947;BMP280;51469;52.150;4.682;2023-06-19T13:46:05;101542.38;;;33.39
64947;BMP280;51469;52.150;4.682;2023-06-19T13:48:31;101522.28;;;33.31
64947;BMP280;51469;52.150;4.682;2023-06-19T13:50:57;101524.91;;;33.24
64947;BMP280;51469;52.150;4.682;2023-06-19T13:53:24;101520.41;;;33.39
64947;BMP280;51469;52.150;4.682;2023-06-19T13:55:49;101513.19;;;33.67
64947;BMP280;51469;52.150;4.682;2023-06-19T13:58:14;101512.38;;;33.38
64947;BMP280;51469;52.150;4.682;2023-06-19T14:00:40;101513.94;;;33.68